createdAt,value
2022-08-28T00:02:24.093Z,101270.91
2022-08-28T00:04:50.812Z,101272.09
2022-08-28T00:07:17.458Z,101267.78
2022-08-28T00:09:44.207Z,101273.19
2022-08-28T00:12:12.389Z,101268.16
2022-08-28T00:14:39.644Z,101272.25
2022-08-28T00:17:06.304Z,101283.50
2022-08-28T00:19:36.697Z,101283.72
2022-08-28T00:22:05.670Z,101277.25
2022-08-28T00:24:32.047Z,101282.78
2022-08-28T00:27:16.941Z,101288.28
2022-08-28T00:29:45.083Z,101294.69
2022-08-28T00:32:11.525Z,101292.69
2022-08-28T00:34:38.846Z,101288.19
2022-08-28T00:37:06.242Z,101289.41
2022-08-28T00:39:32.942Z,101290.75
2022-08-28T00:41:59.470Z,101289.69
2022-08-28T00:44:27.926Z,101293.19
2022-08-28T00:46:57.666Z,101291.00
2022-08-28T00:49:28.280Z,101287.09
2022-08-28T00:52:08.590Z,101290.34
2022-08-28T00:54:59.369Z,101289.22
2022-08-28T00:57:34.750Z,101289.88
2022-08-28T01:00:01.743Z,101288.88
2022-08-28T01:02:28.369Z,101286.75
2022-08-28T01:04:55.455Z,101288.34
2022-08-28T01:07:23.116Z,101293.00
2022-08-28T01:09:54.031Z,101295.69
2022-08-28T01:12:27.929Z,101296.81
2022-08-28T01:14:59.886Z,101298.47
2022-08-28T01:17:31.156Z,101296.69
2022-08-28T01:20:03.239Z,101300.59
2022-08-28T01:22:29.591Z,101297.91
2022-08-28T01:25:00.769Z,101299.75
2022-08-28T01:27:27.805Z,101303.09
2022-08-28T01:29:54.315Z,101302.25
2022-08-28T01:32:33.059Z,101306.22
2022-08-28T01:35:00.972Z,101315.81
2022-08-28T01:37:28.195Z,101309.28
2022-08-28T01:39:54.693Z,101314.38
2022-08-28T01:42:21.668Z,101313.84
2022-08-28T01:44:49.166Z,101313.16
2022-08-28T01:47:15.836Z,101306.06
2022-08-28T01:49:42.269Z,101310.31
2022-08-28T01:52:09.404Z,101307.63
2022-08-28T01:54:38.385Z,101301.28
2022-08-28T01:57:05.683Z,101305.56
2022-08-28T01:59:33.216Z,101308.88
2022-08-28T02:01:59.874Z,101310.66
2022-08-28T02:04:31.733Z,101298.00
2022-08-28T02:06:59.273Z,101301.63
2022-08-28T02:09:25.700Z,101294.28
2022-08-28T02:11:52.663Z,101284.44
2022-08-28T02:14:19.257Z,101288.88
2022-08-28T02:16:45.717Z,101297.47
2022-08-28T02:19:12.248Z,101296.00
2022-08-28T02:21:39.260Z,101310.19
2022-08-28T02:24:05.919Z,101308.75
2022-08-28T02:26:32.726Z,101315.28
2022-08-28T02:28:59.417Z,101316.78
2022-08-28T02:31:26.821Z,101318.19
2022-08-28T02:33:53.265Z,101321.91
2022-08-28T02:36:22.372Z,101325.16
2022-08-28T02:38:48.856Z,101323.59
2022-08-28T02:41:15.394Z,101334.28
2022-08-28T02:43:41.871Z,101335.06
2022-08-28T02:46:09.113Z,101337.16
2022-08-28T02:48:38.035Z,101323.84
2022-08-28T02:51:08.261Z,101340.00
2022-08-28T02:53:35.763Z,101337.38
2022-08-28T02:56:03.295Z,101343.34
2022-08-28T02:58:32.596Z,101341.28
2022-08-28T03:01:01.697Z,101344.72
2022-08-28T03:03:31.205Z,101338.66
2022-08-28T03:05:59.785Z,101338.00
2022-08-28T03:08:27.384Z,101332.44
2022-08-28T03:10:54.155Z,101338.22
2022-08-28T03:13:23.049Z,101338.41
2022-08-28T03:15:56.036Z,101338.88
2022-08-28T03:18:24.347Z,101337.47
2022-08-28T03:20:52.158Z,101331.53
2022-08-28T03:23:27.599Z,101342.75
2022-08-28T03:26:00.864Z,101348.47
2022-08-28T03:28:31.941Z,101353.84
2022-08-28T03:30:58.805Z,101346.22
2022-08-28T03:33:26.782Z,101360.59
2022-08-28T03:35:55.549Z,101360.81
2022-08-28T03:38:22.942Z,101358.38
2022-08-28T03:40:52.104Z,101361.47
2022-08-28T03:43:21.984Z,101364.91
2022-08-28T03:46:04.275Z,101364.13
2022-08-28T03:48:34.648Z,101362.28
2022-08-28T03:51:02.235Z,101367.16
2022-08-28T03:53:29.915Z,101379.66
2022-08-28T03:55:57.945Z,101373.94
2022-08-28T03:58:25.172Z,101372.13
2022-08-28T04:00:51.875Z,101374.94
2022-08-28T04:03:18.935Z,101373.72
2022-08-28T04:05:46.723Z,101378.03
2022-08-28T04:08:16.665Z,101378.44
2022-08-28T04:10:44.566Z,101386.84
2022-08-28T04:13:12.584Z,101387.63
2022-08-28T04:15:40.944Z,101391.94
2022-08-28T04:18:08.360Z,101390.91
2022-08-28T04:20:35.098Z,101392.78
2022-08-28T04:23:03.788Z,101405.03
2022-08-28T04:25:30.948Z,101400.31
2022-08-28T04:27:57.508Z,101401.38
2022-08-28T04:30:24.200Z,101402.59
2022-08-28T04:32:50.630Z,101396.22
2022-08-28T04:35:17.057Z,101398.50
2022-08-28T04:37:43.790Z,101399.53
2022-08-28T04:40:12.885Z,101406.91
2022-08-28T04:42:40.117Z,101405.63
2022-08-28T04:45:07.420Z,101407.50
2022-08-28T04:47:38.813Z,101406.69
2022-08-28T04:50:06.960Z,101401.75
2022-08-28T04:52:33.516Z,101409.56
2022-08-28T04:55:00.243Z,101414.88
2022-08-28T04:57:26.670Z,101414.03
2022-08-28T04:59:53.128Z,101421.81
2022-08-28T05:02:19.906Z,101419.75
2022-08-28T05:04:47.235Z,101429.78
2022-08-28T05:07:13.865Z,101430.81
2022-08-28T05:09:40.234Z,101428.16
2022-08-28T05:12:06.694Z,101437.53
2022-08-28T05:14:33.186Z,101439.59
2022-08-28T05:16:59.819Z,101434.69
2022-08-28T05:19:27.892Z,101438.56
2022-08-28T05:21:54.872Z,101446.34
2022-08-28T05:24:22.424Z,101446.94
2022-08-28T05:26:49.006Z,101448.59
2022-08-28T05:29:16.691Z,101447.16
2022-08-28T05:31:43.809Z,101453.09
2022-08-28T05:34:10.469Z,101452.06
2022-08-28T05:36:38.850Z,101463.34
2022-08-28T05:39:08.844Z,101457.38
2022-08-28T05:41:36.758Z,101458.41
2022-08-28T05:44:06.661Z,101453.50
2022-08-28T05:46:34.535Z,101448.59
2022-08-28T05:49:00.997Z,101457.41
2022-08-28T05:51:28.144Z,101460.84
2022-08-28T05:53:55.695Z,101455.97
2022-08-28T05:56:25.230Z,101455.38
2022-08-28T05:58:51.731Z,101458.00
2022-08-28T06:01:19.541Z,101453.97
2022-08-28T06:03:56.101Z,101458.25
2022-08-28T06:06:24.573Z,101464.59
2022-08-28T06:08:58.685Z,101468.03
2022-08-28T06:11:27.016Z,101464.59
2022-08-28T06:14:02.687Z,101473.56
2022-08-28T06:16:31.187Z,101481.16
2022-08-28T06:18:58.056Z,101465.78
2022-08-28T06:21:24.736Z,101476.44
2022-08-28T06:23:51.721Z,101483.19
2022-08-28T06:26:18.244Z,101483.97
2022-08-28T06:28:44.689Z,101475.41
2022-08-28T06:31:28.814Z,101482.38
2022-08-28T06:33:58.520Z,101483.56
2022-08-28T06:36:29.986Z,101483.78
2022-08-28T06:39:00.825Z,101490.72
2022-08-28T06:41:28.418Z,101495.63
2022-08-28T06:43:56.112Z,101491.50
2022-08-28T06:46:22.954Z,101487.19
2022-08-28T06:48:49.727Z,101487.41
2022-08-28T06:51:16.727Z,101488.41
2022-08-28T06:53:45.431Z,101498.09
2022-08-28T06:56:25.698Z,101491.09
2022-08-28T06:58:55.996Z,101492.53
2022-08-28T07:01:24.361Z,101492.31
2022-08-28T07:03:53.715Z,101489.88
2022-08-28T07:06:22.109Z,101498.66
2022-08-28T07:08:49.120Z,101493.72
2022-08-28T07:11:19.776Z,101490.59
2022-08-28T07:13:46.449Z,101495.88
2022-08-28T07:16:16.106Z,101486.97
2022-08-28T07:18:44.386Z,101497.16
2022-08-28T07:21:12.613Z,101507.06
2022-08-28T07:23:41.990Z,101498.28
2022-08-28T07:26:12.652Z,101505.22
2022-08-28T07:28:39.625Z,101502.31
2022-08-28T07:31:13.262Z,101497.03
2022-08-28T07:33:40.411Z,101504.69
2022-08-28T07:36:15.775Z,101498.56
2022-08-28T07:38:45.857Z,101505.88
2022-08-28T07:41:26.983Z,101504.31
2022-08-28T07:44:12.094Z,101504.19
2022-08-28T07:46:38.684Z,101512.03
2022-08-28T07:49:06.908Z,101505.25
2022-08-28T07:51:33.465Z,101516.50
2022-08-28T07:54:00.349Z,101518.66
2022-08-28T07:56:29.607Z,101520.69
2022-08-28T07:58:58.264Z,101515.72
2022-08-28T08:01:26.477Z,101515.91
2022-08-28T08:03:57.655Z,101515.06
2022-08-28T08:06:33.891Z,101516.66
2022-08-28T08:09:01.870Z,101519.53
2022-08-28T08:11:28.420Z,101522.03
2022-08-28T08:14:05.626Z,101518.38
2022-08-28T08:16:38.939Z,101522.63
2022-08-28T08:19:06.750Z,101521.13
2022-08-28T08:21:33.231Z,101518.34
2022-08-28T08:23:59.622Z,101527.88
2022-08-28T08:26:28.097Z,101530.81
2022-08-28T08:28:55.641Z,101525.13
2022-08-28T08:31:33.184Z,101523.22
2022-08-28T08:34:02.457Z,101517.28
2022-08-28T08:36:30.512Z,101518.09
2022-08-28T08:38:59.396Z,101527.34
2022-08-28T08:41:48.554Z,101525.81
2022-08-28T08:44:33.548Z,101526.34
2022-08-28T08:47:13.999Z,101535.66
2022-08-28T08:49:55.866Z,101528.31
2022-08-28T08:52:42.415Z,101525.34
2022-08-28T08:55:18.958Z,101527.47
2022-08-28T08:57:49.323Z,101529.00
2022-08-28T09:00:17.757Z,101527.28
2022-08-28T09:02:54.786Z,101527.88
2022-08-28T09:05:32.455Z,101524.94
2022-08-28T09:08:02.637Z,101518.25
2022-08-28T09:10:39.488Z,101528.91
2022-08-28T09:13:16.600Z,101529.31
2022-08-28T09:15:48.790Z,101531.78
2022-08-28T09:18:31.912Z,101527.31
2022-08-28T09:21:00.138Z,101528.59
2022-08-28T09:23:29.999Z,101531.94
2022-08-28T09:26:02.470Z,101534.06
2022-08-28T09:28:40.924Z,101538.38
2022-08-28T09:31:15.750Z,101535.09
2022-08-28T09:33:48.512Z,101548.72
2022-08-28T09:36:22.610Z,101556.13
2022-08-28T09:39:24.513Z,101552.97
2022-08-28T09:42:42.240Z,101543.94
2022-08-28T09:45:21.409Z,101543.91
2022-08-28T09:47:58.457Z,101544.56
2022-08-28T09:50:42.373Z,101537.94
2022-08-28T09:53:08.740Z,101538.50
2022-08-28T09:55:47.198Z,101545.09
2022-08-28T09:58:15.659Z,101546.22
2022-08-28T10:00:49.873Z,101544.75
2022-08-28T10:03:25.673Z,101538.56
2022-08-28T10:06:06.291Z,101535.09
2022-08-28T10:08:57.073Z,101530.53
2022-08-28T10:11:31.572Z,101530.03
2022-08-28T10:14:10.946Z,101537.41
2022-08-28T10:17:06.669Z,101527.38
2022-08-28T10:19:59.949Z,101521.97
2022-08-28T10:22:26.349Z,101523.34
2022-08-28T10:25:07.392Z,101531.38
2022-08-28T10:27:53.135Z,101525.50
2022-08-28T10:30:23.054Z,101527.84
2022-08-28T10:33:17.126Z,101529.00
2022-08-28T10:35:57.993Z,101524.09
2022-08-28T10:38:37.316Z,101533.84
2022-08-28T10:41:25.340Z,101530.28
2022-08-28T10:43:54.067Z,101527.53
2022-08-28T10:46:29.024Z,101526.97
2022-08-28T10:49:18.642Z,101529.13
2022-08-28T10:51:49.598Z,101533.88
2022-08-28T10:54:30.423Z,101526.97
2022-08-28T10:57:26.932Z,101534.22
2022-08-28T10:59:54.247Z,101535.41
2022-08-28T11:02:25.812Z,101529.97
2022-08-28T11:04:58.367Z,101527.75
2022-08-28T11:07:48.373Z,101525.34
2022-08-28T11:10:23.596Z,101538.97
2022-08-28T11:12:52.627Z,101534.25
2022-08-28T11:15:40.975Z,101526.28
2022-08-28T11:18:16.655Z,101523.94
2022-08-28T11:21:05.877Z,101532.06
2022-08-28T11:23:47.407Z,101517.59
2022-08-28T11:26:23.581Z,101513.91
2022-08-28T11:28:51.843Z,101526.78
2022-08-28T11:31:28.779Z,101520.44
2022-08-28T11:33:58.831Z,101527.72
2022-08-28T11:36:29.733Z,101536.28
2022-08-28T11:38:56.294Z,101531.00
2022-08-28T11:41:27.450Z,101529.78
2022-08-28T11:43:59.564Z,101524.34
2022-08-28T11:46:31.542Z,101528.13
2022-08-28T11:49:05.103Z,101529.75
2022-08-28T11:51:56.222Z,101528.81
2022-08-28T11:54:51.397Z,101523.97
2022-08-28T11:57:23.767Z,101526.19
2022-08-28T12:00:21.428Z,101539.16
2022-08-28T12:02:56.054Z,101524.00
2022-08-28T12:05:39.949Z,101528.00
2022-08-28T12:08:06.850Z,101528.31
2022-08-28T12:10:33.185Z,101523.38
2022-08-28T12:13:03.250Z,101512.59
2022-08-28T12:15:29.749Z,101520.81
2022-08-28T12:18:04.776Z,101521.00
2022-08-28T12:21:25.451Z,101517.91
2022-08-28T12:24:08.962Z,101513.56
2022-08-28T12:26:39.759Z,101511.00
2022-08-28T12:29:28.083Z,101511.81
2022-08-28T12:32:27.906Z,101496.78
2022-08-28T12:34:57.306Z,101503.41
2022-08-28T12:37:53.031Z,101508.25
2022-08-28T12:40:52.762Z,101508.75
2022-08-28T12:43:22.482Z,101504.59
2022-08-28T12:45:53.418Z,101502.66
2022-08-28T12:48:32.878Z,101491.63
2022-08-28T12:51:12.558Z,101498.47
2022-08-28T12:53:43.359Z,101493.59
2022-08-28T12:56:14.542Z,101488.94
2022-08-28T12:58:42.203Z,101500.09
2022-08-28T13:01:14.661Z,101487.72
2022-08-28T13:03:52.918Z,101492.31
2022-08-28T13:06:32.795Z,101484.41
2022-08-28T13:09:14.035Z,101477.84
2022-08-28T13:11:46.772Z,101473.78
2022-08-28T13:14:13.581Z,101479.53
2022-08-28T13:16:46.509Z,101473.66
2022-08-28T13:19:27.221Z,101470.19
2022-08-28T13:22:01.925Z,101464.56
2022-08-28T13:24:30.985Z,101471.56
2022-08-28T13:27:02.327Z,101476.31
2022-08-28T13:29:29.324Z,101458.66
2022-08-28T13:32:05.605Z,101461.88
2022-08-28T13:34:39.197Z,101467.78
2022-08-28T13:37:40.942Z,101467.59
2022-08-28T13:40:16.006Z,101457.31
2022-08-28T13:42:55.996Z,101468.53
2022-08-28T13:45:22.429Z,101465.63
2022-08-28T13:47:48.816Z,101459.88
2022-08-28T13:50:15.298Z,101463.09
2022-08-28T13:52:42.136Z,101454.03
2022-08-28T13:55:09.810Z,101453.56
2022-08-28T13:57:37.093Z,101450.88
2022-08-28T14:00:04.744Z,101450.81
2022-08-28T14:02:49.647Z,101453.72
2022-08-28T14:05:16.121Z,101451.16
2022-08-28T14:07:42.521Z,101444.38
2022-08-28T14:10:11.522Z,101442.94
2022-08-28T14:12:38.027Z,101440.22
2022-08-28T14:15:05.426Z,101441.03
2022-08-28T14:17:31.864Z,101439.59
2022-08-28T14:20:00.217Z,101446.88
2022-08-28T14:22:27.386Z,101438.72
2022-08-28T14:24:53.981Z,101429.53
2022-08-28T14:27:20.494Z,101429.81
2022-08-28T14:29:47.022Z,101429.00
2022-08-28T14:32:13.466Z,101426.81
2022-08-28T14:34:40.020Z,101428.41
2022-08-28T14:37:06.609Z,101423.03
2022-08-28T14:39:33.554Z,101420.34
2022-08-28T14:42:00.017Z,101424.03
2022-08-28T14:44:26.502Z,101419.25
2022-08-28T14:46:56.902Z,101429.56
2022-08-28T14:49:25.656Z,101424.16
2022-08-28T14:51:53.717Z,101426.34
2022-08-28T14:54:22.565Z,101429.59
2022-08-28T14:56:49.979Z,101412.84
2022-08-28T14:59:24.464Z,101419.31
2022-08-28T15:01:52.368Z,101420.41
2022-08-28T15:04:22.749Z,101420.09
2022-08-28T15:06:54.821Z,101427.94
2022-08-28T15:09:21.265Z,101428.19
2022-08-28T15:11:47.718Z,101424.69
2022-08-28T15:14:14.162Z,101425.44
2022-08-28T15:16:43.309Z,101428.31
2022-08-28T15:19:13.089Z,101433.47
2022-08-28T15:21:47.133Z,101426.78
2022-08-28T15:24:16.150Z,101424.63
2022-08-28T15:26:42.843Z,101425.94
2022-08-28T15:29:10.778Z,101425.34
2022-08-28T15:31:41.525Z,101423.44
2022-08-28T15:34:13.872Z,101417.50
2022-08-28T15:36:42.213Z,101424.16
2022-08-28T15:39:27.886Z,101417.88
2022-08-28T15:41:54.570Z,101419.13
2022-08-28T15:44:21.187Z,101422.59
2022-08-28T15:46:53.845Z,101433.63
2022-08-28T15:49:23.808Z,101426.78
2022-08-28T15:51:50.802Z,101422.50
2022-08-28T15:54:17.417Z,101425.38
2022-08-28T15:56:43.866Z,101423.72
2022-08-28T15:59:10.577Z,101421.84
2022-08-28T16:01:38.392Z,101417.50
2022-08-28T16:04:06.604Z,101418.66
2022-08-28T16:06:34.708Z,101409.44
2022-08-28T16:09:01.199Z,101406.97
2022-08-28T16:11:28.085Z,101413.94
2022-08-28T16:13:58.990Z,101414.28
2022-08-28T16:16:25.431Z,101418.75
2022-08-28T16:18:54.196Z,101412.53
2022-08-28T16:21:20.645Z,101413.56
2022-08-28T16:23:48.232Z,101413.84
2022-08-28T16:26:15.864Z,101408.28
2022-08-28T16:28:44.691Z,101414.88
2022-08-28T16:31:19.223Z,101407.34
2022-08-28T16:33:48.292Z,101414.94
2022-08-28T16:36:15.590Z,101406.34
2022-08-28T16:38:45.450Z,101405.75
2022-08-28T16:41:21.747Z,101414.19
2022-08-28T16:43:49.355Z,101416.88
2022-08-28T16:46:20.057Z,101412.88
2022-08-28T16:48:47.820Z,101408.94
2022-08-28T16:51:15.455Z,101409.78
2022-08-28T16:53:42.784Z,101403.81
2022-08-28T16:56:11.258Z,101401.25
2022-08-28T16:58:42.444Z,101403.13
2022-08-28T17:01:10.604Z,101396.25
2022-08-28T17:03:38.618Z,101396.56
2022-08-28T17:06:13.170Z,101398.88
2022-08-28T17:08:39.655Z,101404.75
2022-08-28T17:11:06.821Z,101407.88
2022-08-28T17:13:34.740Z,101404.59
2022-08-28T17:16:01.774Z,101396.94
2022-08-28T17:18:28.615Z,101400.19
2022-08-28T17:21:13.494Z,101407.56
2022-08-28T17:23:39.925Z,101403.38
2022-08-28T17:26:06.468Z,101403.28
2022-08-28T17:28:33.486Z,101406.88
2022-08-28T17:31:00.304Z,101407.13
2022-08-28T17:33:26.810Z,101407.69
2022-08-28T17:35:58.180Z,101417.34
2022-08-28T17:38:26.333Z,101422.72
2022-08-28T17:40:53.255Z,101419.91
2022-08-28T17:43:20.649Z,101420.78
2022-08-28T17:45:47.413Z,101416.88
2022-08-28T17:48:14.407Z,101416.97
2022-08-28T17:50:41.061Z,101424.47
2022-08-28T17:53:07.526Z,101421.78
2022-08-28T17:55:33.940Z,101423.72
2022-08-28T17:58:00.418Z,101420.00
2022-08-28T18:00:26.850Z,101424.59
2022-08-28T18:02:54.364Z,101426.75
2022-08-28T18:05:20.986Z,101429.50
2022-08-28T18:07:47.573Z,101424.06
2022-08-28T18:10:14.082Z,101430.28
2022-08-28T18:12:41.403Z,101432.88
2022-08-28T18:15:10.183Z,101435.91
2022-08-28T18:17:38.188Z,101437.09
2022-08-28T18:20:06.934Z,101433.44
2022-08-28T18:22:33.377Z,101437.19
2022-08-28T18:24:59.879Z,101437.63
2022-08-28T18:27:31.363Z,101441.97
2022-08-28T18:29:58.618Z,101448.47
2022-08-28T18:32:25.535Z,101452.81
2022-08-28T18:34:52.206Z,101454.31
2022-08-28T18:37:18.585Z,101462.72
2022-08-28T18:39:45.144Z,101460.72
2022-08-28T18:42:11.827Z,101461.06
2022-08-28T18:44:38.288Z,101467.19
2022-08-28T18:47:04.809Z,101469.22
2022-08-28T18:49:31.333Z,101473.97
2022-08-28T18:51:57.860Z,101479.31
2022-08-28T18:54:24.326Z,101487.06
2022-08-28T18:56:51.442Z,101484.31
2022-08-28T18:59:18.852Z,101488.47
2022-08-28T19:01:45.559Z,101485.81
2022-08-28T19:04:12.102Z,101491.28
2022-08-28T19:06:40.929Z,101497.19
2022-08-28T19:09:07.432Z,101496.19
2022-08-28T19:11:35.704Z,101508.28
2022-08-28T19:14:03.801Z,101496.91
2022-08-28T19:16:31.819Z,101507.09
2022-08-28T19:18:58.332Z,101507.91
2022-08-28T19:21:25.047Z,101507.91
2022-08-28T19:23:55.915Z,101517.31
2022-08-28T19:26:24.479Z,101512.09
2022-08-28T19:28:51.443Z,101519.56
2022-08-28T19:31:18.257Z,101520.50
2022-08-28T19:33:46.752Z,101519.09
2022-08-28T19:36:14.114Z,101519.13
2022-08-28T19:38:41.556Z,101518.09
2022-08-28T19:41:10.105Z,101523.47
2022-08-28T19:43:44.204Z,101530.00
2022-08-28T19:46:18.218Z,101537.38
2022-08-28T19:48:46.661Z,101530.22
2022-08-28T19:51:14.380Z,101541.88
2022-08-28T19:53:44.680Z,101541.50
2022-08-28T19:56:11.116Z,101536.94
2022-08-28T19:58:37.581Z,101537.00
2022-08-28T20:01:04.864Z,101542.06
2022-08-28T20:03:31.726Z,101540.00
2022-08-28T20:06:03.622Z,101548.78
2022-08-28T20:08:30.708Z,101543.03
2022-08-28T20:10:57.317Z,101548.31
2022-08-28T20:13:23.878Z,101546.88
2022-08-28T20:15:50.460Z,101554.91
2022-08-28T20:18:16.902Z,101556.97
2022-08-28T20:20:45.897Z,101559.22
2022-08-28T20:23:12.356Z,101561.44
2022-08-28T20:25:39.183Z,101565.13
2022-08-28T20:28:05.748Z,101566.53
2022-08-28T20:30:32.146Z,101566.84
2022-08-28T20:33:01.234Z,101565.84
2022-08-28T20:35:27.807Z,101563.34
2022-08-28T20:37:54.189Z,101573.06
2022-08-28T20:40:21.662Z,101565.66
2022-08-28T20:42:48.871Z,101573.72
2022-08-28T20:45:16.936Z,101575.38
2022-08-28T20:47:44.264Z,101571.72
2022-08-28T20:50:12.235Z,101577.06
2022-08-28T20:52:38.834Z,101584.22
2022-08-28T20:55:07.587Z,101577.91
2022-08-28T20:57:34.412Z,101588.59
2022-08-28T21:00:05.344Z,101586.94
2022-08-28T21:02:33.055Z,101587.97
2022-08-28T21:04:59.617Z,101590.63
2022-08-28T21:07:26.647Z,101594.06
2022-08-28T21:10:05.055Z,101592.22
2022-08-28T21:12:34.911Z,101597.97
2022-08-28T21:15:01.551Z,101595.94
2022-08-28T21:17:29.638Z,101601.03
2022-08-28T21:19:59.949Z,101604.31
2022-08-28T21:22:26.428Z,101611.06
2022-08-28T21:24:52.813Z,101605.53
2022-08-28T21:27:19.244Z,101613.72
2022-08-28T21:29:46.015Z,101609.66
2022-08-28T21:32:12.539Z,101612.09
2022-08-28T21:34:39.068Z,101614.75
2022-08-28T21:37:06.256Z,101618.84
2022-08-28T21:39:32.699Z,101611.91
2022-08-28T21:41:59.165Z,101614.97
2022-08-28T21:44:25.567Z,101623.41
2022-08-28T21:46:52.038Z,101623.41
2022-08-28T21:49:18.598Z,101627.09
2022-08-28T21:51:44.994Z,101629.13
2022-08-28T21:54:11.518Z,101618.88
2022-08-28T21:56:37.941Z,101626.47
2022-08-28T21:59:04.446Z,101631.19
2022-08-28T22:01:31.044Z,101632.84
2022-08-28T22:03:57.640Z,101628.31
2022-08-28T22:06:25.292Z,101625.25
2022-08-28T22:08:52.861Z,101627.09
2022-08-28T22:11:24.497Z,101627.91
2022-08-28T22:13:52.520Z,101624.63
2022-08-28T22:16:19.717Z,101638.94
2022-08-28T22:18:46.261Z,101631.56
2022-08-28T22:21:34.740Z,101630.78
2022-08-28T22:24:01.827Z,101634.69
2022-08-28T22:26:28.343Z,101629.75
2022-08-28T22:28:55.849Z,101642.00
2022-08-28T22:31:22.333Z,101629.53
2022-08-28T22:33:48.876Z,101632.19
2022-08-28T22:36:17.333Z,101627.06
2022-08-28T22:38:49.770Z,101621.31
2022-08-28T22:41:20.164Z,101622.56
2022-08-28T22:43:48.281Z,101631.97
2022-08-28T22:46:16.813Z,101624.22
2022-08-28T22:48:43.292Z,101623.16
2022-08-28T22:51:13.753Z,101618.06
2022-08-28T22:53:42.300Z,101618.06
2022-08-28T22:56:10.072Z,101619.28
2022-08-28T22:58:37.177Z,101622.97
2022-08-28T23:01:17.601Z,101619.50
2022-08-28T23:03:44.957Z,101618.44
2022-08-28T23:06:12.052Z,101619.22
2022-08-28T23:08:38.570Z,101620.44
2022-08-28T23:11:05.762Z,101628.03
2022-08-28T23:13:33.071Z,101616.31
2022-08-28T23:16:01.702Z,101612.88
2022-08-28T23:18:28.834Z,101619.44
2022-08-28T23:20:56.017Z,101617.13
2022-08-28T23:23:23.375Z,101615.06
2022-08-28T23:25:50.433Z,101617.94
2022-08-28T23:28:17.783Z,101625.66
2022-08-28T23:30:48.541Z,101617.63
2022-08-28T23:33:23.785Z,101611.72
2022-08-28T23:35:51.882Z,101613.53
2022-08-28T23:38:18.744Z,101614.53
2022-08-28T23:40:46.021Z,101611.44
2022-08-28T23:43:12.417Z,101614.78
2022-08-28T23:45:40.690Z,101619.47
2022-08-28T23:48:07.789Z,101605.19
2022-08-28T23:50:34.487Z,101618.50
2022-08-28T23:53:01.305Z,101615.56
2022-08-28T23:55:28.028Z,101608.06
2022-08-28T23:57:54.465Z,101606.00
